Time;durP1;ratioP1;P1;durP2;ratioP2;P2;SDS_P1;SDS_P2;PMS_P1;PMS_P2;Temp;Humidity;BMP_temperature;BMP_pressure;BME280_temperature;BME280_humidity;BME280_pressure;Samples;Min_cycle;Max_cycle;Signal;HPM_P1;HPM_P2
2021/07/23 00:01:08;;;;;;;5.20;3.03;;;;;;;16.46;52.02;102024.25;5042434;28;20026;-67
2021/07/23 00:03:37;;;;;;;6.60;2.38;;;;;;;16.42;52.43;102020.94;5038784;28;20064;-66
2021/07/23 00:06:02;;;;;;;4.82;2.78;;;;;;;16.47;52.33;102022.50;5038065;28;20114;-67
2021/07/23 00:08:28;;;;;;;6.18;2.78;;;;;;;16.37;51.66;102022.91;5033552;28;20116;-65
2021/07/23 00:10:53;;;;;;;8.93;3.00;;;;;;;16.08;52.69;102023.41;5034715;28;20464;-65
2021/07/23 00:13:18;;;;;;;13.90;3.03;;;;;;;16.11;52.63;102025.91;5045151;28;20041;-65
2021/07/23 00:15:44;;;;;;;5.80;2.72;;;;;;;16.10;52.90;102029.47;5039676;28;20559;-66
2021/07/23 00:18:09;;;;;;;7.30;2.63;;;;;;;16.21;52.68;102017.50;5043011;28;20040;-66
2021/07/23 00:20:35;;;;;;;5.50;2.85;;;;;;;16.17;51.59;102025.63;5046561;28;20041;-66
2021/07/23 00:23:00;;;;;;;6.50;3.28;;;;;;;15.93;51.04;102027.53;5046056;28;20036;-67
2021/07/23 00:25:26;;;;;;;9.18;3.97;;;;;;;16.12;50.74;102024.97;5038800;28;20029;-67
2021/07/23 00:27:51;;;;;;;6.80;3.70;;;;;;;16.03;49.85;102017.47;5039622;28;20513;-67
2021/07/23 00:30:17;;;;;;;5.68;3.15;;;;;;;16.09;49.84;102019.84;5040812;28;20045;-66
2021/07/23 00:32:42;;;;;;;9.57;4.00;;;;;;;15.99;49.39;102012.31;5043916;28;20037;-67
2021/07/23 00:35:09;;;;;;;5.38;3.22;;;;;;;16.09;48.92;102011.94;5039068;28;20490;-68
2021/07/23 00:37:37;;;;;;;7.38;3.25;;;;;;;16.24;49.07;102018.28;5035603;28;20549;-68
2021/07/23 00:40:04;;;;;;;8.00;3.65;;;;;;;16.36;48.06;102015.09;5048505;28;20030;-67
2021/07/23 00:42:34;;;;;;;4.75;2.95;;;;;;;16.11;47.85;102005.66;5040152;28;20039;-67
2021/07/23 00:45:01;;;;;;;7.10;3.03;;;;;;;16.06;47.22;102006.78;5043620;28;20115;-67
2021/07/23 00:47:27;;;;;;;8.35;4.38;;;;;;;16.25;46.88;102001.53;5045412;28;20104;-67
2021/07/23 00:49:53;;;;;;;10.23;3.33;;;;;;;16.26;47.15;102004.09;5033617;28;20032;-67
2021/07/23 00:52:19;;;;;;;6.70;3.08;;;;;;;16.33;47.21;102000.25;5037804;28;20429;-65
2021/07/23 00:54:44;;;;;;;7.13;3.00;;;;;;;16.39;46.90;102005.22;5046658;28;20037;-66
2021/07/23 00:57:10;;;;;;;9.73;3.60;;;;;;;16.46;46.65;101999.66;5042389;28;20044;-66
2021/07/23 00:59:36;;;;;;;6.57;3.00;;;;;;;16.34;46.79;101999.31;5045451;28;20174;-66
2021/07/23 01:02:02;;;;;;;7.47;3.70;;;;;;;16.39;46.82;101994.69;5042974;28;20115;-67
2021/07/23 01:04:27;;;;;;;6.65;3.65;;;;;;;16.48;46.67;101997.81;5050890;28;20038;-67
2021/07/23 01:06:53;;;;;;;5.65;2.80;;;;;;;16.52;46.10;101988.84;5058901;28;20040;-67
2021/07/23 01:09:19;;;;;;;8.75;3.40;;;;;;;16.46;46.63;101991.75;5044037;28;20032;-68
2021/07/23 01:11:46;;;;;;;5.55;3.65;;;;;;;16.50;46.51;101993.31;5058641;28;20033;-66
2021/07/23 01:14:17;;;;;;;9.00;3.95;;;;;;;16.52;46.37;101988.84;5034712;28;20404;-67
2021/07/23 01:16:44;;;;;;;5.75;3.13;;;;;;;16.51;46.58;101987.09;5043109;28;20123;-71
2021/07/23 01:19:11;;;;;;;6.32;3.08;;;;;;;16.53;46.35;101985.25;5046098;28;20036;-68
2021/07/23 01:21:42;;;;;;;6.07;3.25;;;;;;;16.50;46.92;101993.31;5032971;28;20111;-67
2021/07/23 01:24:11;;;;;;;;;;;;;;;16.57;46.48;101987.66;5049059;28;20037;-67
2021/07/23 01:26:44;;;;;;;6.13;3.58;;;;;;;16.59;46.96;101985.81;5033526;28;20414;-67
2021/07/23 01:29:12;;;;;;;6.68;3.70;;;;;;;16.65;46.73;101984.69;5039602;28;20044;-68
2021/07/23 01:31:40;;;;;;;5.40;3.08;;;;;;;16.62;46.25;101982.16;5036683;28;20045;-66
2021/07/23 01:34:06;;;;;;;6.07;3.30;;;;;;;16.57;46.52;101984.19;5040309;28;20119;-66
2021/07/23 01:36:32;;;;;;;6.10;3.40;;;;;;;16.48;47.13;101981.97;5039611;28;20124;-65
2021/07/23 01:38:59;;;;;;;6.20;2.97;;;;;;;16.48;47.25;101981.97;5038217;28;20136;-66
2021/07/23 01:41:26;;;;;;;6.45;3.40;;;;;;;16.52;46.92;101980.91;5030585;28;20683;-66
2021/07/23 01:43:54;;;;;;;6.75;3.08;;;;;;;16.40;47.40;101983.22;5040710;28;20095;-67
2021/07/23 01:46:21;;;;;;;3.80;3.05;;;;;;;16.37;47.23;101980.69;5032148;28;20041;-67
2021/07/23 01:49:11;;;;;;;5.78;2.50;;;;;;;16.38;47.11;101969.22;5033047;28;20087;-66
2021/07/23 01:51:38;;;;;;;6.35;2.85;;;;;;;16.31;47.13;101974.84;5035160;28;20561;-65
2021/07/23 01:54:25;;;;;;;7.38;3.00;;;;;;;16.26;47.11;101975.06;5033476;28;20132;-64
2021/07/23 01:56:53;;;;;;;4.32;2.80;;;;;;;16.18;46.96;101974.59;5042006;28;20221;-63
2021/07/23 01:59:19;;;;;;;11.02;3.28;;;;;;;16.18;46.93;101970.16;5049648;28;20407;-64
2021/07/23 02:01:45;;;;;;;3.72;2.40;;;;;;;16.23;46.55;101971.75;5041579;28;20031;-64
2021/07/23 02:04:25;;;;;;;4.57;2.50;;;;;;;16.11;46.72;101967.91;5053581;28;20426;-63
2021/07/23 02:06:51;;;;;;;5.82;2.40;;;;;;;16.02;46.72;101968.28;5046063;28;20037;-64
2021/07/23 02:09:18;;;;;;;5.72;3.13;;;;;;;16.00;47.17;101968.38;5044043;28;20105;-67
2021/07/23 02:12:03;;;;;;;6.32;2.55;;;;;;;16.12;46.79;101959.03;5038816;28;20044;-67
2021/07/23 02:14:56;;;;;;;7.53;2.75;;;;;;;15.96;46.81;101962.34;5047037;28;20124;-67
2021/07/23 02:17:23;;;;;;;6.65;2.38;;;;;;;16.05;46.58;101962.91;5041490;28;20040;-68
2021/07/23 02:19:50;;;;;;;6.38;2.53;;;;;;;16.04;47.16;101956.78;5044349;28;20072;-68
2021/07/23 02:22:20;;;;;;;6.65;2.28;;;;;;;15.96;47.00;101958.88;5032436;28;20640;-68
2021/07/23 02:24:45;;;;;;;5.15;2.65;;;;;;;16.12;46.84;101959.03;5023835;28;20045;-68
2021/07/23 02:27:15;;;;;;;5.30;2.70;;;;;;;16.05;46.65;101963.75;5038416;28;20037;-68
2021/07/23 02:29:45;;;;;;;8.75;2.95;;;;;;;16.09;46.57;101959.19;5035375;28;20626;-64
2021/07/23 02:32:11;;;;;;;7.22;3.22;;;;;;;16.15;46.17;101954.50;5019966;28;20029;-65
2021/07/23 02:34:36;;;;;;;3.92;2.72;;;;;;;16.04;46.41;101959.41;5040483;28;20093;-65
2021/07/23 02:37:02;;;;;;;7.50;2.67;;;;;;;16.14;45.94;101952.78;5041499;28;20032;-66
2021/07/23 02:39:28;;;;;;;7.38;2.95;;;;;;;16.06;46.00;101954.03;5044584;28;20024;-67
2021/07/23 02:41:58;;;;;;;5.50;2.50;;;;;;;16.19;45.74;101956.03;5042884;28;20037;-67
2021/07/23 02:44:25;;;;;;;4.53;2.72;;;;;;;16.21;45.77;101948.06;5036842;28;20346;-67
2021/07/23 02:46:50;;;;;;;4.70;3.05;;;;;;;16.19;45.53;101948.13;5038868;28;20173;-66
2021/07/23 02:49:18;;;;;;;5.22;2.85;;;;;;;16.21;45.29;101948.91;5034673;28;20036;-67
2021/07/23 02:51:46;;;;;;;4.30;2.88;;;;;;;16.17;45.54;101949.13;5040027;28;20061;-67
2021/07/23 02:54:11;;;;;;;3.97;3.00;;;;;;;16.32;45.26;101948.41;5040212;28;20057;-66
2021/07/23 02:56:37;;;;;;;7.30;3.70;;;;;;;16.37;44.92;101943.75;5044127;28;20065;-66
2021/07/23 02:59:04;;;;;;;5.43;2.83;;;;;;;16.41;44.72;101931.28;5026356;28;20107;-66
2021/07/23 03:01:31;;;;;;;4.25;3.10;;;;;;;16.38;44.56;101936.72;5017471;28;20116;-67
2021/07/23 03:03:59;;;;;;;4.82;2.95;;;;;;;16.38;44.73;101942.84;5043019;28;20035;-66
2021/07/23 03:06:29;;;;;;;6.07;3.20;;;;;;;16.42;44.67;101938.28;5031087;28;20029;-67
2021/07/23 03:08:54;;;;;;;4.57;3.08;;;;;;;16.46;44.61;101941.63;5041581;28;20082;-67
2021/07/23 03:11:22;;;;;;;7.78;3.95;;;;;;;16.34;45.07;101936.00;5043621;28;20037;-66
2021/07/23 03:13:58;;;;;;;5.35;3.50;;;;;;;16.32;45.01;101940.50;5038705;28;20170;-66
2021/07/23 03:16:25;;;;;;;5.10;3.15;;;;;;;16.15;45.99;101945.69;5035806;28;20529;-68
2021/07/23 03:18:51;;;;;;;5.35;2.78;;;;;;;16.05;46.22;101944.44;5037386;28;20406;-67
2021/07/23 03:21:22;;;;;;;6.20;3.42;;;;;;;16.11;46.39;101937.09;5039627;28;20441;-67
2021/07/23 03:23:49;;;;;;;5.30;2.97;;;;;;;16.04;47.01;101940.97;5040332;28;20044;-67
2021/07/23 03:26:16;;;;;;;5.95;3.60;;;;;;;16.07;46.56;101935.53;5037151;28;20025;-67
2021/07/23 03:28:46;;;;;;;7.47;2.97;;;;;;;16.14;46.89;101938.72;5035424;28;20059;-67
2021/07/23 03:31:19;;;;;;;7.50;3.58;;;;;;;16.18;47.01;101932.41;5038458;28;20037;-67
2021/07/23 03:34:01;;;;;;;5.85;3.60;;;;;;;16.32;46.79;101923.81;5042671;28;20131;-67
2021/07/23 03:37:05;;;;;;;7.88;4.95;;;;;;;16.34;46.24;101927.25;5026731;28;20045;-67
2021/07/23 03:39:47;;;;;;;6.07;3.90;;;;;;;16.35;46.03;101924.53;5032391;28;20122;-67
2021/07/23 03:42:17;;;;;;;5.88;3.60;;;;;;;16.38;45.96;101919.09;5039912;28;20498;-65
2021/07/23 03:44:51;;;;;;;6.47;4.10;;;;;;;16.34;45.50;101917.53;5042498;28;20045;-70
2021/07/23 03:47:17;;;;;;;6.57;4.20;;;;;;;16.31;45.93;101922.97;5046542;28;20119;-69
2021/07/23 03:49:44;;;;;;;9.20;4.22;;;;;;;16.32;45.77;101924.66;5048731;28;20036;-69
2021/07/23 03:52:12;;;;;;;6.03;4.65;;;;;;;16.37;45.57;101922.66;5048148;28;20033;-69
2021/07/23 03:54:57;;;;;;;6.80;3.95;;;;;;;16.33;45.99;101913.19;5049192;28;20044;-70
2021/07/23 03:57:24;;;;;;;8.95;4.43;;;;;;;16.23;46.22;101914.56;5048124;28;20064;-69
2021/07/23 03:59:49;;;;;;;8.27;4.72;;;;;;;16.24;45.90;101908.34;5035329;28;20095;-68
2021/07/23 04:02:16;;;;;;;6.38;4.75;;;;;;;16.21;46.12;101916.41;5044915;28;20568;-66
2021/07/23 04:04:43;;;;;;;6.07;4.80;;;;;;;16.18;46.23;101916.56;5039516;28;20036;-67
2021/07/23 04:07:08;;;;;;;10.30;5.80;;;;;;;16.11;46.52;101921.28;5044397;28;20107;-66
2021/07/23 04:09:34;;;;;;;10.45;5.80;;;;;;;16.05;46.45;101921.56;5046057;28;20021;-67
2021/07/23 04:12:01;;;;;;;11.45;5.72;;;;;;;15.97;46.57;101918.38;5043499;28;20718;-65
2021/07/23 04:14:34;;;;;;;10.50;5.22;;;;;;;16.00;46.61;101927.03;5044549;28;20026;-65
2021/07/23 04:17:00;;;;;;;13.88;6.35;;;;;;;16.11;46.85;101930.97;5048430;28;20048;-65
2021/07/23 04:19:27;;;;;;;10.07;5.82;;;;;;;16.13;46.67;101926.44;5051524;28;20037;-67
2021/07/23 04:21:58;;;;;;;12.45;5.53;;;;;;;16.02;46.66;101924.34;5046798;28;20041;-66
2021/07/23 04:24:40;;;;;;;;;;;;;;;16.13;46.81;101923.81;5044461;28;20095;-65
2021/07/23 04:27:06;;;;;;;9.88;5.18;;;;;;;15.95;47.11;101922.88;5042073;28;20453;-65
2021/07/23 04:29:33;;;;;;;8.00;5.68;;;;;;;16.10;46.96;101924.81;5026035;28;20033;-66
2021/07/23 04:31:59;;;;;;;10.32;6.30;;;;;;;16.15;46.78;101930.75;5043434;28;20037;-66
2021/07/23 04:34:27;;;;;;;9.80;6.13;;;;;;;16.12;46.63;101919.47;5020315;28;20037;-65
2021/07/23 04:37:08;;;;;;;11.88;5.32;;;;;;;16.20;46.73;101920.84;5041047;28;20536;-65
2021/07/23 04:39:39;;;;;;;13.30;5.45;;;;;;;16.13;47.01;101929.09;5034783;28;20125;-66
2021/07/23 04:42:08;;;;;;;8.18;4.82;;;;;;;16.07;46.71;101926.75;5050811;28;20033;-67
2021/07/23 04:44:34;;;;;;;8.38;4.57;;;;;;;16.15;46.33;101927.25;5048701;28;20056;-66
2021/07/23 04:47:02;;;;;;;6.90;4.45;;;;;;;16.13;46.40;101919.41;5046463;28;20143;-65
2021/07/23 04:49:31;;;;;;;5.50;3.85;;;;;;;16.24;46.15;101915.41;5026151;28;20031;-65
2021/07/23 04:51:58;;;;;;;10.05;3.65;;;;;;;16.19;46.28;101920.91;5036867;28;20103;-66
2021/07/23 04:54:42;;;;;;;11.95;4.15;;;;;;;16.14;45.83;101917.63;5047749;28;20047;-67
2021/07/23 04:57:28;;;;;;;7.32;3.60;;;;;;;16.11;46.16;101917.78;5045335;28;20052;-67
2021/07/23 04:59:56;;;;;;;5.63;3.03;;;;;;;16.17;45.93;101920.13;5048782;28;20422;-66
2021/07/23 05:02:23;;;;;;;6.93;3.22;;;;;;;16.20;45.93;101915.56;5045815;28;20572;-68
2021/07/23 05:04:49;;;;;;;6.95;3.22;;;;;;;16.31;45.99;101919.44;5039668;28;20052;-66
2021/07/23 05:07:16;;;;;;;6.07;2.72;;;;;;;16.41;45.37;101912.81;5040914;28;20030;-67
2021/07/23 05:09:42;;;;;;;4.43;2.58;;;;;;;16.48;45.31;101918.66;5040308;28;20024;-69
2021/07/23 05:12:10;;;;;;;4.32;2.65;;;;;;;16.46;45.43;101917.88;5045154;28;20033;-69
2021/07/23 05:14:36;;;;;;;6.13;2.55;;;;;;;16.38;45.42;101919.09;5043418;28;20040;-67
2021/07/23 05:17:01;;;;;;;5.78;2.17;;;;;;;16.37;45.50;101917.38;5038310;28;20100;-68
2021/07/23 05:19:27;;;;;;;5.90;2.65;;;;;;;16.40;45.37;101911.13;5038979;28;20391;-67
2021/07/23 05:21:53;;;;;;;3.80;2.63;;;;;;;16.40;45.22;101911.13;5040430;28;20119;-66
2021/07/23 05:24:18;;;;;;;6.05;2.47;;;;;;;16.41;45.39;101910.19;5043373;28;20112;-68
2021/07/23 05:26:44;;;;;;;9.10;2.53;;;;;;;16.39;45.50;101914.69;5039295;28;20038;-68
2021/07/23 05:29:10;;;;;;;6.05;2.15;;;;;;;16.39;45.51;101907.59;5042353;28;20036;-66
2021/07/23 05:31:36;;;;;;;7.43;2.78;;;;;;;16.51;45.50;101914.09;5037653;28;20036;-67
2021/07/23 05:34:02;;;;;;;6.78;2.47;;;;;;;16.53;45.03;101914.00;5048147;28;20036;-66
2021/07/23 05:36:28;;;;;;;6.05;2.80;;;;;;;16.46;45.28;101912.59;5045801;28;20055;-66
2021/07/23 05:38:54;;;;;;;5.30;2.42;;;;;;;16.19;45.97;101913.84;5039212;28;20401;-66
2021/07/23 05:41:20;;;;;;;5.22;2.28;;;;;;;16.38;45.28;101913.81;5042422;28;20120;-67
2021/07/23 05:43:46;;;;;;;5.18;2.10;;;;;;;16.51;45.43;101915.84;5043455;28;20048;-67
2021/07/23 05:46:11;;;;;;;4.97;2.40;;;;;;;16.58;44.95;101917.28;5040491;28;20037;-66
2021/07/23 05:48:38;;;;;;;5.30;2.30;;;;;;;16.52;45.68;101914.94;5038615;28;20368;-67
2021/07/23 05:51:05;;;;;;;8.98;2.30;;;;;;;16.42;45.59;101915.38;5041357;28;20041;-67
2021/07/23 05:53:31;;;;;;;4.05;2.17;;;;;;;16.37;45.68;101912.09;5015957;28;20029;-65
2021/07/23 05:56:00;;;;;;;3.97;2.08;;;;;;;16.50;45.39;101914.16;5038218;28;20043;-66
2021/07/23 05:58:27;;;;;;;6.18;1.98;;;;;;;16.53;45.50;101919.28;5038900;28;20030;-67
2021/07/23 06:00:53;;;;;;;4.80;1.65;;;;;;;16.60;44.94;101910.16;5038118;28;20498;-66
2021/07/23 06:03:18;;;;;;;2.45;1.33;;;;;;;16.68;44.57;101909.75;5040295;28;20067;-66
2021/07/23 06:05:43;;;;;;;4.43;1.75;;;;;;;16.73;44.13;101908.63;5041582;28;20435;-66
2021/07/23 06:08:09;;;;;;;9.07;1.65;;;;;;;16.90;44.19;101906.94;5046019;28;20029;-67
2021/07/23 06:10:34;;;;;;;5.90;1.73;;;;;;;17.00;44.08;101913.44;5041608;28;20119;-65
2021/07/23 06:13:00;;;;;;;8.98;1.50;;;;;;;17.13;43.68;101911.88;5039912;28;20033;-67
2021/07/23 06:15:25;;;;;;;5.78;2.33;;;;;;;17.08;43.28;101913.06;5049060;28;20041;-66
2021/07/23 06:17:51;;;;;;;5.00;1.75;;;;;;;16.98;43.27;101907.41;5043017;28;20428;-67
2021/07/23 06:20:17;;;;;;;5.97;1.63;;;;;;;17.00;43.36;101910.81;5043238;28;20064;-66
2021/07/23 06:22:42;;;;;;;5.75;1.38;;;;;;;16.95;43.07;101908.41;5047401;28;20488;-66
2021/07/23 06:25:08;;;;;;;7.15;1.88;;;;;;;16.96;43.83;101914.56;5045675;28;20029;-67
2021/07/23 06:27:37;;;;;;;4.68;1.55;;;;;;;16.90;43.57;101905.16;5043608;28;20036;-68
2021/07/23 06:30:05;;;;;;;3.40;1.73;;;;;;;17.12;43.52;101910.19;5043906;28;20295;-67
2021/07/23 06:32:32;;;;;;;6.93;1.88;;;;;;;17.28;43.30;101914.69;5041991;28;20500;-67
2021/07/23 06:35:01;;;;;;;7.53;2.00;;;;;;;17.21;42.76;101920.28;5040370;28;20053;-66
2021/07/23 06:37:26;;;;;;;6.85;2.35;;;;;;;17.32;43.35;101921.53;5056056;28;20396;-67
2021/07/23 06:39:52;;;;;;;6.20;2.20;;;;;;;17.36;42.86;101920.44;5040877;28;20392;-66
2021/07/23 06:42:19;;;;;;;3.85;1.92;;;;;;;17.45;43.17;101912.00;5035998;28;20037;-67
2021/07/23 06:44:44;;;;;;;4.68;2.20;;;;;;;17.61;42.79;101915.56;5042661;28;20703;-66
2021/07/23 06:47:10;;;;;;;5.70;1.73;;;;;;;17.44;42.50;101913.78;5039123;28;20029;-66
2021/07/23 06:49:36;;;;;;;3.75;2.10;;;;;;;17.47;42.83;101915.44;5039133;28;20025;-67
2021/07/23 06:52:02;;;;;;;7.10;1.70;;;;;;;17.61;42.17;101905.00;5035435;28;20041;-66
2021/07/23 06:54:27;;;;;;;5.68;1.95;;;;;;;17.59;41.25;101913.94;5040478;28;20045;-67
2021/07/23 06:56:54;;;;;;;6.82;2.70;;;;;;;17.71;41.14;101907.16;5045853;28;20398;-67
2021/07/23 06:59:20;;;;;;;9.23;3.03;;;;;;;17.88;41.12;101904.44;5039336;28;20029;-68
2021/07/23 07:01:45;;;;;;;2.83;1.63;;;;;;;17.92;41.28;101915.72;5039014;28;20033;-68
2021/07/23 07:04:11;;;;;;;3.13;2.55;;;;;;;17.94;40.63;101904.13;5041161;28;20517;-66
2021/07/23 07:06:36;;;;;;;5.90;2.50;;;;;;;18.05;40.58;101901.72;5042233;28;20090;-69
2021/07/23 07:09:02;;;;;;;4.45;2.00;;;;;;;18.03;40.83;101908.88;5045000;28;20024;-66
2021/07/23 07:11:28;;;;;;;3.55;1.88;;;;;;;18.11;39.64;101910.25;5039731;28;20032;-69
2021/07/23 07:13:54;;;;;;;4.00;2.22;;;;;;;18.02;40.43;101911.59;5039202;28;20044;-69
2021/07/23 07:16:19;;;;;;;6.95;2.35;;;;;;;18.01;40.50;101913.41;5034442;28;20509;-67
2021/07/23 07:18:45;;;;;;;7.88;3.30;;;;;;;18.02;40.06;101911.59;5038970;28;20101;-67
2021/07/23 07:21:12;;;;;;;6.07;2.53;;;;;;;17.99;39.44;101914.44;5034452;28;20045;-67
2021/07/23 07:23:37;;;;;;;5.20;2.20;;;;;;;18.06;40.07;101916.63;5038837;28;20029;-66
2021/07/23 07:26:03;;;;;;;7.30;1.98;;;;;;;18.10;40.29;101921.78;5034430;28;20566;-67
2021/07/23 07:28:28;;;;;;;10.55;2.63;;;;;;;18.12;40.48;101919.88;5037122;28;20114;-68
2021/07/23 07:30:53;;;;;;;4.63;2.10;;;;;;;18.09;41.39;101917.41;5037608;28;20101;-66
2021/07/23 07:33:19;;;;;;;7.85;2.47;;;;;;;18.14;41.56;101921.53;5038310;28;20053;-66
2021/07/23 07:35:45;;;;;;;4.97;1.92;;;;;;;18.26;41.07;101925.31;5038672;28;20056;-68
2021/07/23 07:38:12;;;;;;;3.60;2.40;;;;;;;18.22;40.90;101924.59;5030482;28;20029;-66
2021/07/23 07:40:38;;;;;;;3.10;2.47;;;;;;;18.08;41.16;101921.00;5055486;28;20477;-65
2021/07/23 07:43:06;;;;;;;4.68;2.17;;;;;;;17.97;41.69;101919.78;5031621;28;20056;-66
2021/07/23 07:45:36;;;;;;;7.70;3.17;;;;;;;18.08;41.70;101919.22;5035367;28;20059;-68
2021/07/23 07:48:03;;;;;;;7.65;2.20;;;;;;;18.43;40.67;101921.69;5038501;28;20029;-66
2021/07/23 07:50:29;;;;;;;4.95;1.98;;;;;;;18.63;40.49;101912.59;5037323;28;20515;-68
2021/07/23 07:52:55;;;;;;;5.82;2.13;;;;;;;18.49;39.88;101921.34;5035699;28;20115;-67
2021/07/23 07:55:20;;;;;;;3.47;2.15;;;;;;;18.41;40.39;101919.16;5039119;28;20108;-66
2021/07/23 07:57:46;;;;;;;8.10;2.72;;;;;;;18.29;39.48;101916.34;5045022;28;20037;-68
2021/07/23 08:00:11;;;;;;;5.75;2.40;;;;;;;18.30;39.52;101913.59;5036738;28;20094;-68
2021/07/23 08:02:42;;;;;;;7.78;2.83;;;;;;;18.26;40.16;101920.84;5035090;28;20489;-68
2021/07/23 08:05:09;;;;;;;6.63;3.03;;;;;;;18.32;40.41;101919.66;5039177;28;20051;-67
2021/07/23 08:07:38;;;;;;;6.60;3.45;;;;;;;18.44;40.62;101915.47;5036177;28;20037;-68
2021/07/23 08:10:05;;;;;;;9.25;2.58;;;;;;;18.48;39.78;101917.84;5039617;28;20468;-68
2021/07/23 08:12:31;;;;;;;7.78;2.58;;;;;;;18.58;39.62;101920.81;5032604;28;20549;-67
2021/07/23 08:14:58;;;;;;;8.88;2.17;;;;;;;18.60;39.79;101924.22;5034770;28;20401;-66
2021/07/23 08:17:24;;;;;;;3.53;2.22;;;;;;;18.55;40.00;101921.00;5036710;28;20409;-67
2021/07/23 08:19:50;;;;;;;3.90;2.08;;;;;;;18.54;39.80;101921.94;5041251;28;20088;-68
2021/07/23 08:22:16;;;;;;;4.03;1.98;;;;;;;18.48;39.50;101920.50;5037684;28;20044;-66
2021/07/23 08:24:44;;;;;;;3.88;1.73;;;;;;;18.27;40.39;101921.69;5036589;28;20047;-68
2021/07/23 08:27:09;;;;;;;5.22;2.60;;;;;;;18.41;40.25;101921.78;5028325;28;20064;-66
2021/07/23 08:29:35;;;;;;;7.10;2.53;;;;;;;18.53;39.43;101914.94;5039442;28;20398;-66
2021/07/23 08:32:13;;;;;;;3.67;2.40;;;;;;;18.58;39.46;101918.16;5038545;28;20143;-66
2021/07/23 08:34:40;;;;;;;4.50;1.67;;;;;;;18.72;39.61;101919.16;5041352;28;20034;-66
2021/07/23 08:37:06;;;;;;;5.43;2.47;;;;;;;18.95;38.15;101916.06;5041589;28;20120;-66
2021/07/23 08:39:32;;;;;;;4.68;1.98;;;;;;;19.16;38.38;101923.66;5038733;28;20036;-66
2021/07/23 08:41:57;;;;;;;5.55;1.92;;;;;;;19.16;37.89;101916.56;5042527;28;20128;-67
2021/07/23 08:44:25;;;;;;;4.32;1.92;;;;;;;19.29;38.37;101919.31;5041870;28;20128;-68
2021/07/23 08:46:52;;;;;;;3.63;1.98;;;;;;;19.65;37.43;101918.03;5047333;28;20033;-67
2021/07/23 08:49:18;;;;;;;3.95;2.60;;;;;;;19.95;37.01;101911.75;5040924;28;20033;-66
2021/07/23 08:51:53;;;;;;;5.40;2.60;;;;;;;20.09;35.85;101912.56;5040770;28;20039;-66
2021/07/23 08:54:19;;;;;;;7.47;2.20;;;;;;;20.02;36.52;101915.72;5054499;28;20212;-66
2021/07/23 08:56:48;;;;;;;6.05;2.45;;;;;;;19.60;37.67;101920.97;5053058;28;20486;-67
2021/07/23 08:59:15;;;;;;;3.85;1.40;;;;;;;19.82;37.43;101914.34;5047468;28;20082;-67
2021/07/23 09:01:59;;;;;;;2.63;1.65;;;;;;;19.59;36.69;101919.28;5014993;28;20095;-67
2021/07/23 09:04:26;;;;;;;6.07;2.22;;;;;;;19.76;37.16;101910.25;5042666;28;20409;-67
2021/07/23 09:07:15;;;;;;;4.10;2.17;;;;;;;19.89;36.87;101916.50;5039976;28;20037;-67
2021/07/23 09:09:54;;;;;;;6.28;2.25;;;;;;;20.04;36.62;101916.50;5032021;28;20072;-67
2021/07/23 09:12:19;;;;;;;2.67;2.25;;;;;;;19.88;37.07;101911.28;5055308;28;20040;-68
2021/07/23 09:14:45;;;;;;;5.22;1.63;;;;;;;19.81;38.27;101907.31;5040455;28;20044;-67
2021/07/23 09:17:10;;;;;;;6.63;2.65;;;;;;;19.89;38.35;101905.88;5041879;28;20043;-68
2021/07/23 09:19:38;;;;;;;5.40;1.85;;;;;;;20.21;36.92;101899.50;5039466;28;20035;-70
2021/07/23 09:22:05;;;;;;;2.88;2.10;;;;;;;19.72;37.47;101900.78;5041298;28;20094;-67
2021/07/23 09:24:53;;;;;;;5.25;2.08;;;;;;;19.49;37.22;101903.03;5044941;28;20029;-66
2021/07/23 09:27:31;;;;;;;6.10;2.10;;;;;;;19.70;37.21;101903.56;5042829;28;20045;-66
2021/07/23 09:29:57;;;;;;;6.13;2.50;;;;;;;19.65;36.42;101902.13;5049126;28;20029;-66
2021/07/23 09:32:27;;;;;;;4.57;2.85;;;;;;;19.18;38.00;101903.22;5048671;28;20394;-66
2021/07/23 09:35:08;;;;;;;5.93;2.13;;;;;;;19.23;38.41;101904.66;5044006;28;20073;-66
2021/07/23 09:37:52;;;;;;;3.80;2.25;;;;;;;18.98;38.75;101891.19;5050918;28;20276;-68
2021/07/23 09:40:18;;;;;;;3.95;2.10;;;;;;;18.85;39.01;101893.66;5043101;28;20075;-67
2021/07/23 09:42:44;;;;;;;5.47;2.30;;;;;;;18.90;39.13;101899.59;5047383;28;20021;-67
2021/07/23 09:45:24;;;;;;;4.43;2.20;;;;;;;18.77;39.14;101899.41;5048247;28;20574;-68
2021/07/23 09:47:49;;;;;;;2.88;2.17;;;;;;;18.43;39.54;101893.44;5044133;28;20114;-66
2021/07/23 09:50:15;;;;;;;6.38;2.10;;;;;;;18.71;40.39;101894.47;5042271;28;20473;-67
2021/07/23 09:52:42;;;;;;;2.38;1.70;;;;;;;18.36;40.76;101886.78;5045401;28;20051;-69
2021/07/23 09:55:07;;;;;;;6.60;2.60;;;;;;;18.42;40.28;101883.78;5040113;28;20429;-67
2021/07/23 09:57:34;;;;;;;4.32;2.13;;;;;;;18.34;41.42;101885.16;5042936;28;20039;-65
2021/07/23 10:00:10;;;;;;;12.98;3.50;;;;;;;18.38;40.77;101887.53;5039996;28;20040;-66
2021/07/23 10:02:42;;;;;;;5.90;2.10;;;;;;;18.69;40.03;101897.22;5055553;28;20674;-66
2021/07/23 10:05:12;;;;;;;5.38;2.55;;;;;;;18.41;40.66;101887.38;5044195;28;20099;-68
2021/07/23 10:07:42;;;;;;;4.80;1.88;;;;;;;18.44;40.25;101889.00;5041704;28;20040;-67
2021/07/23 10:10:13;;;;;;;2.97;1.80;;;;;;;18.64;40.40;101890.50;5037420;28;20044;-68
2021/07/23 10:12:44;;;;;;;3.05;1.73;;;;;;;18.82;39.42;101885.91;5041992;28;20040;-66
2021/07/23 10:15:10;;;;;;;3.42;1.77;;;;;;;18.75;39.80;101882.78;5041499;28;20486;-67
2021/07/23 10:17:36;;;;;;;4.70;2.38;;;;;;;18.74;40.46;101883.69;5039924;28;20493;-66
2021/07/23 10:20:03;;;;;;;5.13;1.88;;;;;;;18.72;40.53;101874.13;5041348;28;20044;-67
2021/07/23 10:22:29;;;;;;;4.75;1.75;;;;;;;18.85;41.10;101878.66;5040357;28;20105;-66
2021/07/23 10:24:55;;;;;;;3.58;1.92;;;;;;;19.02;39.85;101880.28;5032323;28;20128;-66
2021/07/23 10:27:26;;;;;;;8.13;2.03;;;;;;;19.09;40.96;101883.44;5036477;28;20147;-66
2021/07/23 10:29:53;;;;;;;3.00;1.60;;;;;;;19.49;38.96;101875.69;5055546;28;20057;-68
2021/07/23 10:32:27;;;;;;;11.00;1.80;;;;;;;19.59;37.59;101878.63;5039495;28;20036;-66
2021/07/23 10:34:55;;;;;;;7.88;2.55;;;;;;;19.59;37.37;101873.34;5042365;28;20086;-66
2021/07/23 10:37:30;;;;;;;5.53;1.90;;;;;;;19.47;38.08;101873.13;5037780;28;20036;-68
2021/07/23 10:40:12;;;;;;;4.72;2.17;;;;;;;19.37;38.69;101866.72;5035654;28;20478;-66
2021/07/23 10:42:39;;;;;;;3.67;2.40;;;;;;;19.74;38.21;101872.38;5031694;28;20029;-66
2021/07/23 10:45:06;;;;;;;5.25;1.65;;;;;;;20.20;37.19;101871.22;5045799;28;20297;-68
2021/07/23 10:47:40;;;;;;;4.70;2.15;;;;;;;20.47;36.27;101864.13;5041819;28;20154;-67
2021/07/23 10:50:12;;;;;;;5.22;2.33;;;;;;;20.13;37.74;101855.69;5040235;28;20090;-68
2021/07/23 10:52:38;;;;;;;4.47;2.25;;;;;;;20.51;36.22;101849.69;5032106;28;20433;-67
2021/07/23 10:55:16;;;;;;;4.97;1.80;;;;;;;20.34;35.49;101852.59;5038441;28;20041;-67
2021/07/23 10:57:42;;;;;;;4.97;2.28;;;;;;;20.42;36.05;101858.28;5039930;28;20045;-66
2021/07/23 11:00:08;;;;;;;4.07;1.58;;;;;;;20.47;36.21;101850.84;5034843;28;20160;-69
2021/07/23 11:02:33;;;;;;;3.75;1.77;;;;;;;20.74;35.89;101849.94;5039001;28;20029;-67
2021/07/23 11:05:07;;;;;;;6.57;2.05;;;;;;;20.66;35.81;101854.91;5042668;28;20409;-69
2021/07/23 11:07:33;;;;;;;3.95;1.90;;;;;;;20.72;36.08;101854.50;5037935;28;20104;-68
2021/07/23 11:09:58;;;;;;;2.47;1.30;;;;;;;21.03;35.43;101850.63;5045079;28;20068;-66
2021/07/23 11:12:31;;;;;;;5.03;2.08;;;;;;;21.05;34.81;101843.38;5030985;28;20044;-66
2021/07/23 11:15:02;;;;;;;8.32;1.92;;;;;;;21.17;35.10;101847.00;5035867;28;20136;-67
2021/07/23 11:17:31;;;;;;;5.43;1.70;;;;;;;20.52;35.05;101847.88;5035554;28;20531;-68
2021/07/23 11:20:01;;;;;;;3.92;1.20;;;;;;;20.65;34.46;101839.94;5040024;28;20029;-68
2021/07/23 11:22:32;;;;;;;4.75;1.75;;;;;;;20.66;35.32;101837.19;5039752;28;20049;-66
2021/07/23 11:25:00;;;;;;;4.85;2.10;;;;;;;21.02;35.60;101842.75;5039051;28;20132;-66
2021/07/23 11:27:30;;;;;;;8.63;5.75;;;;;;;21.53;33.65;101843.59;5041880;28;20045;-68
2021/07/23 11:29:57;;;;;;;3.85;1.55;;;;;;;21.66;33.63;101843.53;5042383;28;20028;-66